Time;durP1;ratioP1;P1;durP2;ratioP2;P2;SDS_P1;SDS_P2;PMS_P1;PMS_P2;Temp;Humidity;BMP_temperature;BMP_pressure;BME280_temperature;BME280_humidity;BME280_pressure;Samples;Min_cycle;Max_cycle;Signal;HPM_P1;HPM_P2
2021/10/25 00:00:16;;;;;;;8.10;5.60;;;9.60;99.90;;;;;;5048285;23;20492;-86
2021/10/25 00:02:50;;;;;;;5.40;4.90;;;9.60;99.90;;;;;;4958878;28;21263;-86
2021/10/25 00:05:31;;;;;;;6.73;5.40;;;9.60;99.90;;;;;;4948402;28;20470;-86
2021/10/25 00:08:01;;;;;;;6.80;5.77;;;9.60;99.90;;;;;;4967436;28;21361;-86
2021/10/25 00:10:37;;;;;;;7.13;5.50;;;9.50;99.90;;;;;;4966417;28;20543;-86
2021/10/25 00:13:13;;;;;;;5.83;5.30;;;9.50;99.90;;;;;;4967792;28;21341;-86
2021/10/25 00:19:40;;;;;;;6.67;5.03;;;9.60;99.90;;;;;;4932678;28;20634;-86
2021/10/25 00:22:13;;;;;;;6.57;5.80;;;9.60;99.90;;;;;;4958004;28;20543;-85
2021/10/25 00:24:40;;;;;;;10.00;5.57;;;9.70;99.90;;;;;;4965490;28;20479;-85
2021/10/25 00:27:16;;;;;;;6.73;4.60;;;9.50;99.90;;;;;;4951609;28;20485;-87
2021/10/25 00:29:46;;;;;;;5.93;5.33;;;9.50;99.90;;;;;;4957015;28;20509;-86
2021/10/25 00:32:39;;;;;;;7.10;6.00;;;9.60;99.90;;;;;;4974715;28;20967;-87
2021/10/25 00:35:14;;;;;;;6.27;4.90;;;9.60;99.90;;;;;;4955554;28;20547;-86
2021/10/25 00:37:47;;;;;;;6.23;5.47;;;9.60;99.90;;;;;;4978051;28;20460;-89
2021/10/25 00:44:02;;;;;;;7.33;5.83;;;9.60;99.90;;;;;;5207950;22;20491;-85
2021/10/25 00:46:32;;;;;;;8.20;6.27;;;9.80;99.90;;;;;;4990938;28;21337;-89
2021/10/25 00:49:23;;;;;;;7.50;5.60;;;9.60;99.90;;;;;;4989863;28;20456;-86
2021/10/25 00:52:20;;;;;;;;;;;;;;;;;;;;;
2021/10/25 00:54:53;;;;;;;7.50;6.00;;;9.70;99.90;;;;;;4980810;28;20487;-87
2021/10/25 00:57:37;;;;;;;8.27;5.80;;;9.60;99.90;;;;;;4990637;28;20464;-85
2021/10/25 01:00:28;;;;;;;7.30;6.07;;;9.40;99.90;;;;;;4968558;28;20480;-85
2021/10/25 01:03:13;;;;;;;8.10;5.47;;;9.40;99.90;;;;;;4976079;28;20461;-86
2021/10/25 01:05:43;;;;;;;8.20;5.93;;;9.40;99.90;;;;;;4967602;28;20494;-88
2021/10/25 01:11:42;;;;;;;6.47;5.57;;;9.40;99.90;;;;;;4987191;28;20479;-86
2021/10/25 01:14:12;;;;;;;6.80;6.13;;;9.40;99.90;;;;;;4988768;28;20466;-89
2021/10/25 01:16:38;;;;;;;9.63;6.87;;;9.40;99.90;;;;;;4974855;28;21040;-85
2021/10/25 01:23:24;;;;;;;11.83;6.67;;;9.30;99.90;;;;;;4949455;28;20447;-85
2021/10/25 01:25:55;;;;;;;7.60;6.20;;;9.30;99.90;;;;;;4977268;28;20549;-86
2021/10/25 01:28:48;;;;;;;8.40;6.63;;;9.20;99.90;;;;;;4972933;28;20485;-88
2021/10/25 01:31:53;;;;;;;6.60;5.50;;;9.10;99.90;;;;;;4962737;28;20434;-87
2021/10/25 01:34:23;;;;;;;7.37;6.00;;;9.20;99.90;;;;;;4972376;28;20479;-87
2021/10/25 01:37:10;;;;;;;6.40;5.40;;;9.10;99.90;;;;;;4994679;28;20470;-86
2021/10/25 01:39:42;;;;;;;7.03;6.13;;;9.10;99.90;;;;;;4993325;28;20464;-85
2021/10/25 01:42:25;;;;;;;9.87;6.40;;;9.00;99.90;;;;;;4973244;28;20499;-87
2021/10/25 01:44:52;;;;;;;6.60;5.17;;;9.00;99.90;;;;;;4972851;28;20482;-86
2021/10/25 01:47:19;;;;;;;9.03;6.80;;;9.00;99.90;;;;;;4989404;28;20502;-86
2021/10/25 01:49:46;;;;;;;7.77;6.60;;;8.90;99.90;;;;;;4986203;28;20460;-87
2021/10/25 01:52:16;;;;;;;7.93;5.83;;;8.90;99.90;;;;;;4969075;28;21001;-87
2021/10/25 01:55:02;;;;;;;;;;;;;;;;;;;;;
2021/10/25 02:05:31;;;;;;;7.43;6.00;;;8.90;99.90;;;;;;4863406;29;20504;-85
2021/10/25 02:08:16;;;;;;;6.40;5.80;;;8.70;99.90;;;;;;4890861;29;20566;-87
2021/10/25 02:10:43;;;;;;;7.40;5.90;;;9.00;99.90;;;;;;4883718;29;20550;-85
2021/10/25 02:13:18;;;;;;;6.17;5.57;;;8.90;99.90;;;;;;4893149;29;20449;-87
2021/10/25 02:16:04;;;;;;;7.40;5.30;;;8.90;99.90;;;;;;4878820;29;21781;-86
2021/10/25 02:18:49;;;;;;;8.07;6.80;;;8.90;99.90;;;;;;4882464;29;20495;-86
2021/10/25 02:21:28;;;;;;;10.13;6.30;;;8.90;99.90;;;;;;4891677;29;20481;-86
2021/10/25 02:26:42;;;;;;;7.17;5.93;;;8.90;99.90;;;;;;5163979;23;20542;-86
2021/10/25 02:29:13;;;;;;;8.90;5.73;;;8.90;99.90;;;;;;4953841;28;20999;-85
2021/10/25 02:32:15;;;;;;;7.93;5.53;;;8.90;99.90;;;;;;4939920;28;20500;-86
2021/10/25 02:34:52;;;;;;;7.00;6.20;;;8.80;99.90;;;;;;4953536;28;20480;-86
2021/10/25 02:40:50;;;;;;;9.23;5.97;;;8.80;99.90;;;;;;4953089;28;20830;-85
2021/10/25 02:43:27;;;;;;;;;;;;;;;;;;;;;
2021/10/25 02:45:59;;;;;;;6.63;6.03;;;8.70;99.90;;;;;;4954309;28;20474;-87
2021/10/25 02:48:26;;;;;;;6.83;6.10;;;8.70;99.90;;;;;;4947048;28;20506;-87
2021/10/25 02:55:13;;;;;;;8.70;6.43;;;8.60;99.90;;;;;;4904286;28;20504;-85
2021/10/25 02:57:42;;;;;;;8.10;5.47;;;8.50;99.90;;;;;;4945305;28;20489;-86
2021/10/25 03:00:13;;;;;;;7.77;6.03;;;8.60;99.90;;;;;;4936179;28;20972;-87
2021/10/25 03:03:04;;;;;;;9.10;6.23;;;8.50;99.90;;;;;;4952187;28;20816;-86
2021/10/25 03:05:37;;;;;;;7.67;5.83;;;8.50;99.90;;;;;;4932423;29;20482;-86
2021/10/25 03:08:28;;;;;;;8.47;6.20;;;8.60;99.90;;;;;;4952220;28;20485;-84
2021/10/25 03:11:22;;;;;;;9.03;5.47;;;8.50;99.90;;;;;;4931003;28;20458;-85
2021/10/25 03:17:13;;;;;;;6.30;5.67;;;8.50;99.90;;;;;;5382222;22;20522;-86
2021/10/25 03:19:41;;;;;;;9.07;5.80;;;8.40;99.90;;;;;;4974228;28;20489;-86
2021/10/25 03:22:17;;;;;;;7.30;5.67;;;8.40;99.90;;;;;;4972954;28;20478;-84
2021/10/25 03:27:20;;;;;;;6.83;6.23;;;8.30;99.90;;;;;;4989423;28;20464;-85
2021/10/25 03:29:47;;;;;;;6.90;6.30;;;8.40;99.90;;;;;;4992248;28;21713;-84
2021/10/25 03:32:36;;;;;;;7.27;6.07;;;8.40;99.90;;;;;;4990598;28;20498;-84
2021/10/25 03:40:15;;;;;;;8.47;5.40;;;8.40;99.90;;;;;;5007924;28;20534;-86
2021/10/25 03:42:46;;;;;;;6.13;4.90;;;8.40;99.90;;;;;;4991790;28;20479;-86
2021/10/25 03:47:57;;;;;;;6.67;5.97;;;8.30;99.90;;;;;;4972455;28;20480;-86
2021/10/25 03:51:01;;;;;;;6.63;5.93;;;8.30;99.90;;;;;;4951079;28;20513;-85
2021/10/25 04:13:45;;;;;;;6.90;6.20;;;7.90;99.90;;;;;;4975790;28;20492;-86
2021/10/25 04:28:39;;;;;;;7.00;5.70;;;7.90;99.90;;;;;;4921886;29;20498;-85
2021/10/25 04:31:07;;;;;;;8.60;6.47;;;7.90;99.90;;;;;;4931739;29;20466;-84
2021/10/25 04:33:34;;;;;;;7.13;6.03;;;7.90;99.90;;;;;;4924413;29;20477;-84
2021/10/25 04:36:02;;;;;;;8.70;6.60;;;7.90;99.90;;;;;;4934394;29;21133;-87
2021/10/25 04:38:28;;;;;;;6.47;5.87;;;7.90;99.90;;;;;;4935565;29;20439;-86
2021/10/25 04:40:58;;;;;;;6.20;5.60;;;7.90;99.90;;;;;;4921619;29;20541;-86
2021/10/25 04:43:28;;;;;;;6.90;6.20;;;8.00;99.90;;;;;;4925336;29;20451;-86
2021/10/25 04:46:02;;;;;;;6.87;5.20;;;7.90;99.90;;;;;;4934613;28;20501;-85
2021/10/25 04:48:58;;;;;;;6.00;5.40;;;7.90;99.90;;;;;;4930716;29;20558;-86
2021/10/25 04:51:48;;;;;;;6.93;5.80;;;7.80;99.90;;;;;;4869940;29;20910;-85
2021/10/25 05:08:32;;;;;;;6.93;6.23;;;7.70;99.90;;;;;;4969022;28;20500;-84
2021/10/25 05:11:06;;;;;;;8.00;6.57;;;7.60;99.90;;;;;;4950951;28;20464;-84
2021/10/25 05:13:33;;;;;;;6.40;5.70;;;7.50;99.90;;;;;;4971181;28;20813;-84
2021/10/25 05:16:24;;;;;;;6.80;5.97;;;7.50;99.90;;;;;;4936930;28;20489;-85
2021/10/25 05:23:08;;;;;;;8.13;6.33;;;7.60;99.90;;;;;;4964530;28;20450;-85
2021/10/25 05:25:36;;;;;;;7.10;6.10;;;7.60;99.90;;;;;;5205412;23;20484;-84
2021/10/25 05:28:17;;;;;;;7.03;6.13;;;7.50;99.90;;;;;;4969984;28;20496;-85
2021/10/25 05:35:13;;;;;;;9.77;6.60;;;7.60;99.90;;;;;;4912004;29;20916;-84
2021/10/25 05:38:32;;;;;;;8.80;6.70;;;7.40;99.90;;;;;;4897130;29;20602;-84
2021/10/25 05:41:00;;;;;;;9.07;6.90;;;7.60;99.90;;;;;;4912034;29;20459;-84
2021/10/25 06:04:41;;;;;;;9.60;7.00;;;7.50;99.90;;;;;;4937095;28;20875;-84
2021/10/25 06:17:39;;;;;;;9.60;7.53;;;7.60;99.90;;;;;;5755469;23;20484;-85
2021/10/25 06:20:37;;;;;;;7.53;6.73;;;7.70;99.90;;;;;;4972522;28;20446;-84
2021/10/25 06:27:08;;;;;;;9.30;6.70;;;7.70;99.90;;;;;;5072708;23;20490;-87
2021/10/25 06:29:37;;;;;;;11.63;7.30;;;7.80;99.90;;;;;;5028005;28;20494;-87
2021/10/25 06:32:23;;;;;;;7.90;6.20;;;7.80;99.90;;;;;;5010550;28;20460;-85
2021/10/25 06:35:17;;;;;;;8.60;7.30;;;7.70;99.90;;;;;;4950951;28;20462;-84
2021/10/25 06:38:06;;;;;;;9.27;6.97;;;7.70;99.90;;;;;;4953140;28;21192;-85
2021/10/25 06:41:33;;;;;;;8.90;6.97;;;7.60;99.90;;;;;;4941660;28;20551;-85
2021/10/25 06:45:06;;;;;;;;;;;;;;;;;;;;;
2021/10/25 06:48:00;;;;;;;7.60;6.80;;;7.40;99.90;;;;;;4971247;28;20481;-84
2021/10/25 06:57:16;;;;;;;7.50;6.80;;;8.30;99.90;;;;;;1051540;26;20774;-86
2021/10/25 07:00:17;;;;;;;7.03;6.20;;;9.70;99.90;;;;;;5015405;28;20521;-85
2021/10/25 07:06:20;;;;;;;6.63;6.00;;;10.80;97.50;;;;;;4972678;28;20487;-85
2021/10/25 07:08:48;;;;;;;8.60;6.60;;;9.40;99.90;;;;;;4992925;28;20549;-87
2021/10/25 07:11:53;;;;;;;7.97;6.40;;;10.00;99.90;;;;;;4977279;28;20961;-85
2021/10/25 07:15:05;;;;;;;9.40;8.20;;;11.60;98.50;;;;;;4976432;28;20463;-87
2021/10/25 08:01:28;;;;;;;9.27;7.67;;;8.90;99.90;;;;;;4948210;28;20468;-87
2021/10/25 08:11:59;;;;;;;9.20;7.70;;;9.20;99.90;;;;;;5008170;28;20457;-86
2021/10/25 08:15:01;;;;;;;8.63;7.47;;;9.10;99.90;;;;;;4977139;28;20472;-86
2021/10/25 08:22:40;;;;;;;;;;;;;;;;;;;;;
2021/10/25 08:26:20;;;;;;;9.33;6.53;;;9.60;99.90;;;;;;4945268;28;20448;-85
2021/10/25 08:29:40;;;;;;;6.50;5.53;;;9.70;99.90;;;;;;4891807;29;20836;-85
2021/10/25 08:40:13;;;;;;;8.23;6.40;;;9.70;99.90;;;;;;4995741;28;20435;-88
2021/10/25 08:43:18;;;;;;;;;;;;;;;;;;;;;
2021/10/25 08:49:24;;;;;;;10.23;7.13;;;10.20;99.90;;;;;;5005964;28;20497;-85
2021/10/25 08:51:51;;;;;;;7.10;6.17;;;10.10;99.90;;;;;;5002737;28;20949;-86
2021/10/25 08:54:18;;;;;;;6.97;6.20;;;9.80;99.90;;;;;;5000780;28;20458;-86
2021/10/25 08:56:45;;;;;;;7.20;6.27;;;9.70;99.90;;;;;;5000443;28;20482;-87
2021/10/25 08:59:30;;;;;;;;;;;;;;;;;;;;;
2021/10/25 09:02:34;;;;;;;9.63;7.47;;;9.90;99.90;;;;;;5001758;28;20427;-84
2021/10/25 09:05:10;;;;;;;6.70;6.00;;;10.50;99.90;;;;;;5000555;28;20477;-85
2021/10/25 09:08:03;;;;;;;7.93;6.33;;;10.50;99.90;;;;;;4997842;28;20489;-86
2021/10/25 09:10:45;;;;;;;7.00;5.97;;;10.30;99.90;;;;;;4999810;28;20557;-84
2021/10/25 09:13:18;;;;;;;6.93;6.10;;;10.40;99.90;;;;;;4999209;28;20545;-85
2021/10/25 09:15:47;;;;;;;9.80;6.40;;;10.40;99.90;;;;;;4998852;28;20474;-85
2021/10/25 09:18:42;;;;;;;7.43;6.73;;;10.50;99.90;;;;;;4997157;28;20469;-85
2021/10/25 09:21:34;;;;;;;7.70;6.83;;;10.80;99.90;;;;;;5000401;28;20453;-87
2021/10/25 09:24:01;;;;;;;7.50;6.80;;;11.10;99.90;;;;;;5002837;28;20522;-85
2021/10/25 09:27:05;;;;;;;8.57;7.10;;;11.10;99.90;;;;;;5045576;23;20892;-86
2021/10/25 09:29:58;;;;;;;10.10;7.43;;;11.30;99.90;;;;;;5000471;28;20993;-84
2021/10/25 09:33:09;;;;;;;7.07;6.47;;;11.40;99.90;;;;;;4999497;28;20444;-86
2021/10/25 09:36:52;;;;;;;6.50;5.77;;;11.90;99.90;;;;;;4928426;29;20567;-83
2021/10/25 09:42:55;;;;;;;5.97;5.40;;;15.00;93.70;;;;;;4940642;29;20458;-86
2021/10/25 09:49:17;;;;;;;5.80;5.30;;;17.00;86.90;;;;;;4887066;29;21118;-86
2021/10/25 09:52:15;;;;;;;6.30;5.70;;;16.40;89.40;;;;;;4882144;29;20456;-84
2021/10/25 09:54:59;;;;;;;5.57;5.07;;;16.10;90.60;;;;;;4881458;29;21159;-85
2021/10/25 09:57:38;;;;;;;5.77;5.23;;;15.80;90.80;;;;;;4884339;29;20527;-85
2021/10/25 10:00:08;;;;;;;6.70;5.63;;;15.30;91.30;;;;;;4883394;29;21000;-86
2021/10/25 10:02:36;;;;;;;5.17;4.70;;;14.60;92.30;;;;;;4895719;29;20550;-85
2021/10/25 10:05:23;;;;;;;5.90;5.40;;;14.30;93.30;;;;;;4886559;29;20491;-85
2021/10/25 10:08:06;;;;;;;6.93;5.37;;;14.10;93.90;;;;;;4883502;29;20557;-84
2021/10/25 10:11:07;;;;;;;6.93;5.20;;;13.90;94.20;;;;;;4883370;29;20507;-85
2021/10/25 10:13:37;;;;;;;6.27;4.87;;;14.00;94.50;;;;;;4908244;29;20464;-84
2021/10/25 10:16:06;;;;;;;5.50;4.90;;;13.80;94.70;;;;;;4599578;28;10000381;-85
2021/10/25 10:18:34;;;;;;;9.40;5.77;;;13.50;95.20;;;;;;4942920;29;20213;-84
2021/10/25 10:21:05;;;;;;;7.57;5.40;;;13.70;95.20;;;;;;4941380;29;20468;-84
2021/10/25 10:23:35;;;;;;;8.80;4.93;;;13.80;95.30;;;;;;4926883;29;20881;-85
2021/10/25 10:26:05;;;;;;;5.50;5.00;;;13.90;95.10;;;;;;4946781;28;20563;-83
2021/10/25 10:28:34;;;;;;;5.50;4.97;;;14.00;95.20;;;;;;4982144;28;20460;-85
2021/10/25 10:31:35;;;;;;;6.20;5.10;;;14.00;95.10;;;;;;4978821;28;20906;-84
2021/10/25 10:34:25;;;;;;;5.27;4.37;;;13.70;95.40;;;;;;4944996;28;20445;-83
2021/10/25 10:37:00;;;;;;;5.03;4.53;;;14.00;95.30;;;;;;4932269;28;20456;-84
2021/10/25 10:39:33;;;;;;;7.80;5.03;;;14.20;95.30;;;;;;4929045;28;20494;-83
2021/10/25 10:42:09;;;;;;;5.23;4.73;;;14.50;94.70;;;;;;4944394;28;20464;-82
2021/10/25 10:44:47;;;;;;;4.67;4.27;;;14.50;94.60;;;;;;4946293;28;20463;-83
2021/10/25 10:47:20;;;;;;;5.40;4.10;;;14.60;94.30;;;;;;4931627;28;20575;-89
2021/10/25 10:49:58;;;;;;;5.73;4.40;;;14.60;94.40;;;;;;4967880;28;20626;-88
2021/10/25 10:53:34;;;;;;;4.10;3.60;;;14.70;93.90;;;;;;4955085;28;20441;-85
2021/10/25 10:59:34;;;;;;;5.33;3.90;;;14.70;93.90;;;;;;5051088;23;20531;-86
2021/10/25 11:02:01;;;;;;;4.57;4.17;;;14.90;93.50;;;;;;4995876;28;20452;-84
2021/10/25 11:04:33;;;;;;;3.60;3.30;;;14.70;93.50;;;;;;4977187;28;20487;-86
2021/10/25 11:07:09;;;;;;;4.80;3.43;;;15.20;93.30;;;;;;4972256;28;20573;-86
2021/10/25 11:10:04;;;;;;;4.40;3.30;;;15.50;92.40;;;;;;4970461;28;20483;-85
2021/10/25 11:12:45;;;;;;;3.53;3.23;;;15.60;92.10;;;;;;4966862;28;20468;-87
2021/10/25 11:15:15;;;;;;;3.43;3.07;;;15.80;91.70;;;;;;4971655;28;20589;-85
2021/10/25 11:17:45;;;;;;;3.80;3.50;;;15.90;91.60;;;;;;4969211;28;20464;-86
2021/10/25 11:20:24;;;;;;;3.60;3.30;;;15.90;91.70;;;;;;4973202;28;20472;-85
2021/10/25 11:23:03;;;;;;;4.47;3.60;;;16.10;91.50;;;;;;4972490;28;20919;-86
2021/10/25 11:25:46;;;;;;;4.40;3.73;;;16.10;91.20;;;;;;4968831;28;20741;-86
2021/10/25 11:28:51;;;;;;;5.37;3.37;;;16.10;91.20;;;;;;4958386;28;20469;-86
2021/10/25 11:35:05;;;;;;;4.50;4.10;;;15.50;92.40;;;;;;4970670;28;20822;-86
2021/10/25 11:37:50;;;;;;;5.97;3.83;;;16.10;91.70;;;;;;4967922;28;20496;-85
2021/10/25 11:44:18;;;;;;;3.90;3.20;;;16.30;91.60;;;;;;4953882;28;20479;-86
2021/10/25 11:46:45;;;;;;;4.40;3.23;;;16.80;90.80;;;;;;4959558;28;20519;-87
2021/10/25 11:49:29;;;;;;;2.97;2.73;;;17.10;90.20;;;;;;4968348;28;20494;-85
2021/10/25 11:52:18;;;;;;;;;;;;;;;;;;;;;
2021/10/25 11:58:12;;;;;;;2.93;2.40;;;17.00;90.10;;;;;;4995589;28;20478;-85
2021/10/25 12:15:57;;;;;;;;;;;;;;;;;;;;;
2021/10/25 12:19:27;;;;;;;4.33;2.83;;;17.40;88.60;;;;;;4978121;28;20892;-86
2021/10/25 12:22:43;;;;;;;3.57;2.90;;;17.20;89.40;;;;;;4989238;28;20471;-85
2021/10/25 12:26:04;;;;;;;4.97;2.50;;;17.50;88.80;;;;;;4986734;28;20651;-86
2021/10/25 12:33:23;;;;;;;3.20;2.90;;;17.60;87.80;;;;;;4936708;29;20481;-84
2021/10/25 12:41:55;;;;;;;;;;;;;;;;;;;;;
2021/10/25 12:45:14;;;;;;;3.40;3.10;;;17.50;87.00;;;;;;4981685;28;20461;-86
2021/10/25 12:48:35;;;;;;;4.40;2.90;;;17.50;88.10;;;;;;4998356;28;20952;-85
2021/10/25 12:51:18;;;;;;;3.37;3.03;;;17.30;87.50;;;;;;4914454;29;20494;-86
2021/10/25 12:55:06;;;;;;;3.43;2.60;;;17.00;89.00;;;;;;4999082;28;20511;-85
2021/10/25 12:58:29;;;;;;;2.90;2.60;;;17.20;88.40;;;;;;4869456;29;20500;-84
2021/10/25 13:01:45;;;;;;;4.43;2.50;;;17.00;88.50;;;;;;4869572;29;20450;-86
2021/10/25 13:04:43;;;;;;;2.70;2.50;;;16.90;88.30;;;;;;4866164;29;20492;-84
2021/10/25 13:07:45;;;;;;;2.33;2.13;;;17.20;87.80;;;;;;4870899;29;20627;-86
2021/10/25 13:10:56;;;;;;;4.00;3.00;;;17.30;86.70;;;;;;4871756;29;20613;-85
2021/10/25 13:14:09;;;;;;;4.30;2.20;;;17.50;86.40;;;;;;4853451;29;20548;-84
2021/10/25 13:16:54;;;;;;;2.77;2.47;;;17.70;85.30;;;;;;4864797;29;20597;-83
2021/10/25 13:22:45;;;;;;;3.00;2.60;;;17.50;85.50;;;;;;4846319;29;20434;-86
2021/10/25 13:25:30;;;;;;;2.70;2.50;;;17.50;85.90;;;;;;4835504;29;20478;-87
2021/10/25 13:28:10;;;;;;;4.53;2.50;;;17.50;86.30;;;;;;4912368;28;20531;-84
2021/10/25 13:31:05;;;;;;;2.83;2.37;;;17.40;86.90;;;;;;4984452;28;20557;-82
2021/10/25 13:33:35;;;;;;;2.53;2.33;;;17.40;86.40;;;;;;4985157;28;20553;-85
2021/10/25 13:36:08;;;;;;;4.43;3.03;;;17.20;87.60;;;;;;4980672;28;20480;-85
2021/10/25 13:43:00;;;;;;;4.73;2.60;;;17.00;87.60;;;;;;4945924;28;20711;-85
2021/10/25 13:53:14;;;;;;;3.40;3.10;;;17.20;87.80;;;;;;4902926;28;20481;-84
2021/10/25 13:56:06;;;;;;;4.97;3.30;;;17.20;87.60;;;;;;4943422;28;22800;-85
2021/10/25 13:59:02;;;;;;;3.27;2.43;;;16.90;88.60;;;;;;4947299;28;20601;-85
2021/10/25 14:09:35;;;;;;;3.93;2.40;;;17.40;89.00;;;;;;4926977;28;20469;-84
2021/10/25 14:12:28;;;;;;;3.80;2.40;;;17.50;88.90;;;;;;4930500;28;20465;-84
2021/10/25 14:15:22;;;;;;;3.77;2.67;;;17.50;88.40;;;;;;4929414;28;20473;-84
2021/10/25 14:18:21;;;;;;;6.07;2.80;;;17.10;88.70;;;;;;4928615;28;20480;-84
2021/10/25 14:21:35;;;;;;;3.57;2.47;;;17.30;89.20;;;;;;4891910;29;20424;-85
2021/10/25 14:24:27;;;;;;;4.43;2.40;;;17.40;87.90;;;;;;4889766;29;20511;-85
2021/10/25 14:27:12;;;;;;;2.57;2.20;;;17.40;87.70;;;;;;4906785;29;20473;-85
2021/10/25 14:30:03;;;;;;;2.80;2.23;;;17.50;87.50;;;;;;4894213;29;20642;-85
2021/10/25 14:32:51;;;;;;;3.80;3.40;;;17.20;87.80;;;;;;4898466;29;20435;-84
2021/10/25 14:35:33;;;;;;;5.20;3.50;;;17.00;89.40;;;;;;4909078;29;20525;-85
2021/10/25 14:56:58;;;;;;;5.20;3.50;;;16.90;92.10;;;;;;4968967;23;20482;-86
2021/10/25 15:00:09;;;;;;;3.63;2.90;;;17.10;90.90;;;;;;4949280;28;20515;-87
2021/10/25 15:07:09;;;;;;;3.43;3.13;;;17.30;90.20;;;;;;4952455;28;20515;-85
2021/10/25 15:10:04;;;;;;;4.00;2.70;;;17.40;90.10;;;;;;4968684;28;20503;-84
2021/10/25 15:12:34;;;;;;;6.90;3.10;;;17.40;89.80;;;;;;4976170;28;20464;-87
2021/10/25 15:15:28;;;;;;;6.00;2.87;;;17.30;90.10;;;;;;4975919;28;20830;-86
2021/10/25 15:22:30;;;;;;;;;;;;;;;;;;;;;
2021/10/25 15:26:06;;;;;;;4.60;3.77;;;17.20;90.80;;;;;;4982191;28;20444;-85
2021/10/25 15:28:53;;;;;;;6.37;3.83;;;17.00;91.30;;;;;;4918017;29;20455;-86
2021/10/25 15:31:55;;;;;;;4.87;3.40;;;16.60;91.80;;;;;;4932579;29;20470;-85
2021/10/25 15:34:30;;;;;;;4.37;3.97;;;16.60;92.50;;;;;;4913485;29;20497;-86
2021/10/25 15:41:07;;;;;;;9.60;6.07;;;16.30;92.90;;;;;;4932371;29;20530;-86
2021/10/25 15:43:36;;;;;;;7.20;5.70;;;16.20;93.70;;;;;;4929594;29;20461;-86
2021/10/25 15:46:09;;;;;;;4.53;4.13;;;16.10;94.70;;;;;;4920028;29;20478;-86
2021/10/25 15:53:38;;;;;;;8.00;4.47;;;16.00;95.30;;;;;;4728272;30;20493;-87
2021/10/25 16:00:12;;;;;;;8.77;4.00;;;15.90;96.30;;;;;;4985424;28;22486;-88
2021/10/25 16:02:45;;;;;;;6.00;3.60;;;15.80;96.80;;;;;;4926993;29;20672;-87
2021/10/25 16:05:13;;;;;;;5.63;4.03;;;15.80;96.20;;;;;;4956657;28;20468;-87
2021/10/25 16:13:47;;;;;;;7.47;4.13;;;15.60;96.50;;;;;;4992991;28;20502;-86
2021/10/25 16:19:07;;;;;;;5.57;4.87;;;15.60;96.90;;;;;;3158526;26;20525;-85
2021/10/25 16:21:44;;;;;;;4.17;3.70;;;15.50;97.20;;;;;;4989731;28;20453;-86
2021/10/25 16:24:25;;;;;;;6.17;3.37;;;15.50;97.30;;;;;;4987895;28;20494;-87
2021/10/25 16:27:54;;;;;;;;;;;;;;;;;;;;;
2021/10/25 16:30:40;;;;;;;5.77;3.90;;;15.50;97.90;;;;;;4928552;28;20478;-86
2021/10/25 16:37:20;;;;;;;8.40;5.30;;;15.30;99.40;;;;;;5019746;23;20487;-86
2021/10/25 16:43:47;;;;;;;5.60;4.03;;;15.20;99.90;;;;;;4855236;29;20477;-87
2021/10/25 16:46:21;;;;;;;5.43;3.70;;;15.00;99.90;;;;;;4851401;29;20529;-87
2021/10/25 16:48:49;;;;;;;6.00;3.97;;;14.90;99.90;;;;;;5538349;23;20485;-87
2021/10/25 17:35:41;;;;;;;9.20;5.17;;;14.90;99.90;;;;;;4862961;29;20563;-85
2021/10/25 17:46:03;;;;;;;8.23;4.67;;;14.30;99.90;;;;;;4938638;28;20559;-86
2021/10/25 17:48:33;;;;;;;8.90;5.63;;;14.70;99.90;;;;;;4943624;28;20523;-87
2021/10/25 17:51:05;;;;;;;6.67;4.53;;;14.80;99.90;;;;;;4943175;29;21140;-87
2021/10/25 17:53:33;;;;;;;5.90;4.50;;;14.90;99.90;;;;;;4944527;28;20474;-87
2021/10/25 17:56:57;;;;;;;;;;;;;;;;;;;;;
2021/10/25 17:59:50;;;;;;;4.87;4.43;;;14.60;99.90;;;;;;4945613;28;20584;-87
2021/10/25 18:02:47;;;;;;;;;;;;;;;;;;;;;
2021/10/25 18:05:37;;;;;;;6.70;4.70;;;14.50;99.90;;;;;;4951442;28;20529;-88
2021/10/25 18:12:23;;;;;;;5.20;4.70;;;14.20;99.90;;;;;;4858207;29;20540;-85
2021/10/25 18:15:01;;;;;;;4.60;4.20;;;14.60;99.90;;;;;;4907984;29;20529;-87
2021/10/25 18:28:57;;;;;;;7.90;5.37;;;14.40;99.90;;;;;;4935829;28;20443;-88
2021/10/25 18:31:38;;;;;;;5.97;4.93;;;14.40;99.90;;;;;;4930087;28;20495;-86
2021/10/25 18:34:58;;;;;;;5.90;5.03;;;14.40;99.90;;;;;;4940368;28;20651;-86
2021/10/25 18:37:52;;;;;;;4.33;3.80;;;14.30;99.90;;;;;;4885564;29;20443;-85
2021/10/25 18:41:01;;;;;;;;;;;;;;;;;;;;;
2021/10/25 18:44:29;;;;;;;5.80;4.50;;;14.40;99.90;;;;;;4858503;29;20452;-85
2021/10/25 18:47:12;;;;;;;5.77;5.13;;;14.40;99.90;;;;;;4875169;29;20876;-85
2021/10/25 18:49:49;;;;;;;5.00;4.50;;;14.40;99.90;;;;;;4921726;29;20490;-85
2021/10/25 18:52:18;;;;;;;5.83;5.10;;;14.30;99.90;;;;;;4915784;29;20549;-86
2021/10/25 18:55:19;;;;;;;6.63;5.20;;;14.40;99.90;;;;;;4902120;29;20514;-86
2021/10/25 18:57:57;;;;;;;5.17;4.70;;;14.40;99.90;;;;;;4922666;29;20493;-86
2021/10/25 19:00:35;;;;;;;6.30;5.17;;;14.40;99.90;;;;;;4914831;29;20881;-84
2021/10/25 19:03:15;;;;;;;7.90;5.30;;;14.40;99.90;;;;;;4901872;29;20458;-85
2021/10/25 19:09:19;;;;;;;4.50;4.10;;;14.20;99.90;;;;;;4825474;29;20594;-87
2021/10/25 19:12:23;;;;;;;4.57;4.17;;;14.10;99.90;;;;;;4816104;29;20494;-85
2021/10/25 19:14:50;;;;;;;4.33;3.87;;;14.10;99.90;;;;;;4892282;29;20528;-87
2021/10/25 19:17:40;;;;;;;7.27;4.57;;;14.30;99.90;;;;;;4877805;29;20618;-84
2021/10/25 19:20:15;;;;;;;4.90;4.07;;;14.20;99.90;;;;;;4893483;29;20474;-85
2021/10/25 19:23:04;;;;;;;4.37;4.00;;;14.20;99.90;;;;;;4894108;29;20519;-86
2021/10/25 19:29:01;;;;;;;3.97;3.67;;;14.10;99.90;;;;;;5017212;23;20512;-85
2021/10/25 21:04:22;;;;;;;5.43;3.77;;;14.30;99.90;;;;;;4959972;28;20481;-84
2021/10/25 21:11:05;;;;;;;3.60;3.10;;;14.20;99.90;;;;;;4907476;29;21132;-84
2021/10/25 21:13:39;;;;;;;4.23;2.83;;;14.20;99.90;;;;;;4924765;28;20469;-85
2021/10/25 21:20:53;;;;;;;4.60;2.90;;;14.00;99.90;;;;;;4899436;29;20466;-83
2021/10/25 21:23:48;;;;;;;5.93;3.20;;;14.00;99.90;;;;;;4919593;29;20496;-85
2021/10/25 21:26:47;;;;;;;4.13;3.43;;;14.00;99.90;;;;;;4940759;28;20567;-83
2021/10/25 21:29:32;;;;;;;5.93;3.07;;;14.00;99.90;;;;;;4945969;28;20476;-84
2021/10/25 21:32:06;;;;;;;4.00;2.73;;;14.00;99.90;;;;;;4942928;28;20526;-87
2021/10/25 21:34:37;;;;;;;2.40;2.20;;;14.00;99.90;;;;;;4951150;28;20453;-84
2021/10/25 21:37:21;;;;;;;4.57;3.13;;;14.00;99.90;;;;;;4958207;28;20476;-86
2021/10/25 21:40:08;;;;;;;3.70;2.27;;;14.00;99.90;;;;;;4948397;28;20511;-84
2021/10/25 21:46:44;;;;;;;2.97;2.00;;;14.00;99.90;;;;;;4922572;29;20440;-85
2021/10/25 21:53:10;;;;;;;2.73;2.53;;;13.90;99.90;;;;;;4966304;28;20573;-85
2021/10/25 21:56:02;;;;;;;2.40;2.20;;;14.10;99.90;;;;;;4960080;28;20480;-85
2021/10/25 21:58:50;;;;;;;2.47;2.20;;;14.10;99.90;;;;;;4966845;28;20448;-85
2021/10/25 22:05:39;;;;;;;3.03;2.73;;;13.80;99.90;;;;;;4949995;28;21065;-85
2021/10/25 22:08:25;;;;;;;2.90;2.57;;;13.70;99.90;;;;;;4969311;28;20496;-85
2021/10/25 22:11:00;;;;;;;2.70;2.30;;;13.60;99.90;;;;;;4966118;28;20483;-85
2021/10/25 22:13:41;;;;;;;3.13;2.47;;;13.60;99.90;;;;;;4965815;28;20614;-83
2021/10/25 22:16:26;;;;;;;5.37;3.10;;;13.60;99.90;;;;;;4964380;28;20571;-83
2021/10/25 22:19:05;;;;;;;3.67;2.50;;;13.50;99.90;;;;;;4965904;28;20457;-84
2021/10/25 22:25:22;;;;;;;4.77;2.70;;;13.60;99.90;;;;;;4962856;28;20579;-83
2021/10/25 22:32:04;;;;;;;3.80;2.73;;;13.60;99.90;;;;;;4891171;29;20854;-86
2021/10/25 22:34:51;;;;;;;3.40;2.93;;;13.70;99.90;;;;;;4895526;29;20478;-85
2021/10/25 22:37:24;;;;;;;3.80;2.70;;;13.70;99.90;;;;;;4969076;28;20627;-86
2021/10/25 22:40:16;;;;;;;3.20;2.23;;;13.60;99.90;;;;;;4943317;28;20452;-85
2021/10/25 22:42:54;;;;;;;3.83;2.80;;;13.80;99.90;;;;;;4967030;28;20452;-88
2021/10/25 22:45:36;;;;;;;5.97;3.60;;;14.10;99.90;;;;;;4964921;28;20868;-84
2021/10/25 22:49:43;;;;;;;2.20;2.00;;;13.90;99.90;;;;;;4980076;28;20453;-87
2021/10/25 22:51:50;;;;;;;4.83;2.33;;;13.80;99.90;;;;;;4946847;28;20484;-86
2021/10/25 22:58:14;;;;;;;2.77;2.50;;;14.20;99.90;;;;;;4988387;28;20420;-87
2021/10/25 23:01:50;;;;;;;3.00;2.60;;;14.20;99.90;;;;;;4924808;29;20528;-88
2021/10/25 23:07:19;;;;;;;4.60;3.23;;;14.30;99.90;;;;;;5393625;23;20490;-89
2021/10/25 23:09:58;;;;;;;3.23;2.93;;;14.30;99.90;;;;;;5007578;28;20555;-88
2021/10/25 23:12:27;;;;;;;2.90;2.60;;;14.10;99.90;;;;;;4978302;28;20483;-86
2021/10/25 23:15:09;;;;;;;6.33;3.07;;;14.00;99.90;;;;;;4988049;28;20479;-87
2021/10/25 23:18:16;;;;;;;3.00;2.67;;;13.90;99.90;;;;;;4987385;28;20474;-85
2021/10/25 23:21:33;;;;;;;3.73;3.33;;;13.90;99.90;;;;;;4987202;28;20466;-84
2021/10/25 23:24:01;;;;;;;3.40;3.00;;;14.10;99.90;;;;;;4964462;28;20443;-86
2021/10/25 23:27:37;;;;;;;;;;;;;;;;;;;;;
2021/10/25 23:30:24;;;;;;;4.30;3.17;;;14.20;99.90;;;;;;4905043;29;20467;-86
2021/10/25 23:33:04;;;;;;;5.43;3.03;;;14.00;99.90;;;;;;4908441;29;21016;-86
2021/10/25 23:35:32;;;;;;;4.23;3.83;;;13.90;99.90;;;;;;4891464;29;20924;-84
2021/10/25 23:37:58;;;;;;;3.50;3.13;;;13.90;99.90;;;;;;4903005;29;20643;-84
2021/10/25 23:40:58;;;;;;;3.67;3.37;;;13.90;99.90;;;;;;4890260;29;20448;-84